Terminal Aerodrome Forecast
Issued by NWS Omaha/Valley, NE

Home | Current Version | Previous Version | Graphics & Text | Print | Product List | Glossary On
Versions: 1 2 3 4 5 6 7 8 9 10 11 12 13 14 15 16 17 18 19 20
000
FTUS43 KOAX 211828 AAA
TAFOFK
TAF AMD
KOFK 211828Z 2118/2218 16010G20KT P6SM SKC
      TEMPO 2118/2122 BKN035
     FM220100 15011KT P6SM FEW250 WS020/20050KT
     FM221300 18015G23KT P6SM FEW200=

USA.gov is the U.S. government's official web portal to all federal, state and local government web resources and services.